createdAt,value
2022-09-23T00:02:17.346Z,32.97
2022-09-23T00:09:00.053Z,24.85
2022-09-23T00:12:29.077Z,26.20
2022-09-23T00:14:58.696Z,26.17
2022-09-23T00:17:27.299Z,27.92
2022-09-23T00:19:55.699Z,27.25
2022-09-23T00:22:24.075Z,28.88
2022-09-23T00:24:52.240Z,33.70
2022-09-23T00:27:21.104Z,29.00
2022-09-23T00:29:49.693Z,29.33
2022-09-23T00:32:19.327Z,31.27
2022-09-23T00:34:47.978Z,31.55
2022-09-23T00:37:16.671Z,28.58
2022-09-23T00:39:45.853Z,32.50
2022-09-23T00:42:16.801Z,32.92
2022-09-23T00:44:50.128Z,32.47
2022-09-23T00:47:23.340Z,32.78
2022-09-23T00:50:01.891Z,34.35
2022-09-23T00:54:33.049Z,38.97
2022-09-23T00:57:01.209Z,34.13
2022-09-23T00:59:47.639Z,35.80
2022-09-23T01:02:16.873Z,38.33
2022-09-23T01:04:46.553Z,35.00
2022-09-23T01:07:14.911Z,37.90
2022-09-23T01:09:43.154Z,36.30
2022-09-23T01:12:28.029Z,38.33
2022-09-23T01:15:03.783Z,41.83
2022-09-23T01:17:39.530Z,36.45
2022-09-23T01:20:38.591Z,38.55
2022-09-23T01:23:22.657Z,34.25
2022-09-23T01:26:15.065Z,36.03
2022-09-23T01:29:03.480Z,34.78
2022-09-23T01:31:41.513Z,31.20
2022-09-23T01:34:15.267Z,35.72
2022-09-23T01:36:49.347Z,37.13
2022-09-23T01:39:28.110Z,32.75
2022-09-23T01:42:02.698Z,32.45
2022-09-23T01:44:36.932Z,31.35
2022-09-23T01:47:12.371Z,35.33
2022-09-23T01:49:46.577Z,36.65
2022-09-23T01:52:19.418Z,39.90
2022-09-23T01:54:54.313Z,41.28
2022-09-23T01:57:28.850Z,38.20
2022-09-23T02:00:04.540Z,42.58
2022-09-23T02:02:49.707Z,43.60
2022-09-23T02:05:23.475Z,40.25
2022-09-23T02:07:59.439Z,42.90
2022-09-23T02:10:33.672Z,40.50
2022-09-23T02:13:06.510Z,43.35
2022-09-23T02:15:40.354Z,40.13
2022-09-23T02:18:14.218Z,40.47
2022-09-23T02:20:42.875Z,35.05
2022-09-23T02:23:14.275Z,35.42
2022-09-23T02:25:53.842Z,39.40
2022-09-23T02:28:28.435Z,39.72
2022-09-23T02:31:08.716Z,46.90
2022-09-23T02:33:42.837Z,43.90
2022-09-23T02:36:16.349Z,43.50
2022-09-23T02:38:50.861Z,42.63
2022-09-23T02:42:02.057Z,43.65
2022-09-23T02:45:32.023Z,40.03
2022-09-23T02:48:05.343Z,41.78
2022-09-23T02:50:35.731Z,46.17
2022-09-23T02:53:04.773Z,46.80
2022-09-23T02:55:33.294Z,43.42
2022-09-23T02:58:03.109Z,43.42
2022-09-23T03:00:44.417Z,43.92
2022-09-23T03:03:30.916Z,43.55
2022-09-23T03:06:09.070Z,46.13
2022-09-23T03:08:48.657Z,38.28
2022-09-23T03:11:17.682Z,39.88
2022-09-23T03:13:58.590Z,36.53
2022-09-23T03:16:35.798Z,35.75
2022-09-23T03:19:24.100Z,36.03
2022-09-23T03:22:00.877Z,31.70
2022-09-23T03:24:32.179Z,33.33
2022-09-23T03:27:05.568Z,31.58
2022-09-23T03:29:37.372Z,32.38
2022-09-23T03:32:08.357Z,33.33
2022-09-23T03:34:39.152Z,34.03
2022-09-23T03:37:15.865Z,32.10
2022-09-23T03:39:47.915Z,30.98
2022-09-23T03:44:03.716Z,30.00
2022-09-23T03:49:35.122Z,29.45
2022-09-23T03:52:03.940Z,29.33
2022-09-23T03:54:34.210Z,26.77
2022-09-23T03:57:03.501Z,25.17
2022-09-23T03:59:32.246Z,31.98
2022-09-23T04:02:01.934Z,28.25
2022-09-23T04:04:34.012Z,24.95
2022-09-23T04:07:02.651Z,33.40
2022-09-23T04:09:31.294Z,28.48
2022-09-23T04:12:00.894Z,34.03
2022-09-23T04:14:29.179Z,24.63
2022-09-23T04:16:57.487Z,25.67
2022-09-23T04:19:25.891Z,26.20
2022-09-23T04:21:54.182Z,28.58
2022-09-23T04:24:22.934Z,30.35
2022-09-23T04:26:53.440Z,27.88
2022-09-23T04:29:24.025Z,27.75
2022-09-23T04:31:52.946Z,29.98
2022-09-23T04:34:21.837Z,29.70
2022-09-23T04:36:50.685Z,29.48
2022-09-23T04:39:19.484Z,32.25
2022-09-23T04:41:48.055Z,37.20
2022-09-23T04:44:17.187Z,34.33
2022-09-23T04:46:48.216Z,29.75
2022-09-23T04:49:17.329Z,31.58
2022-09-23T04:51:45.604Z,30.73
2022-09-23T04:54:14.998Z,31.80
2022-09-23T04:56:43.598Z,27.38
2022-09-23T04:59:11.788Z,26.25
2022-09-23T05:01:40.248Z,26.52
2022-09-23T05:04:14.348Z,27.27
2022-09-23T05:06:45.415Z,22.77
2022-09-23T05:09:16.560Z,26.17
2022-09-23T05:11:47.378Z,21.52
2022-09-23T05:14:15.615Z,20.35
2022-09-23T05:16:43.926Z,27.42
2022-09-23T05:19:13.650Z,19.63
2022-09-23T05:21:42.164Z,20.40
2022-09-23T05:24:10.973Z,22.25
2022-09-23T05:26:39.390Z,23.55
2022-09-23T05:29:07.887Z,31.05
2022-09-23T05:31:36.826Z,23.85
2022-09-23T05:34:06.830Z,22.55
2022-09-23T05:36:39.186Z,22.52
2022-09-23T05:39:08.920Z,31.58
2022-09-23T05:41:38.318Z,29.42
2022-09-23T05:44:06.631Z,29.75
2022-09-23T05:46:35.298Z,28.00
2022-09-23T05:49:05.679Z,24.42
2022-09-23T05:51:36.338Z,23.02
2022-09-23T05:54:06.003Z,15.93
2022-09-23T05:56:35.634Z,23.00
2022-09-23T05:59:04.865Z,21.27
2022-09-23T06:01:35.247Z,20.83
2022-09-23T06:04:06.111Z,19.50
2022-09-23T06:06:37.714Z,17.83
2022-09-23T06:09:06.728Z,15.52
2022-09-23T06:11:36.292Z,15.27
2022-09-23T06:14:09.957Z,16.00
2022-09-23T06:16:38.243Z,12.50
2022-09-23T06:19:07.164Z,15.60
2022-09-23T06:23:07.678Z,13.70
2022-09-23T06:26:30.719Z,12.98
2022-09-23T06:30:01.631Z,12.35
2022-09-23T06:41:09.230Z,8.98
2022-09-23T06:51:21.044Z,8.43
2022-09-23T06:53:52.937Z,12.32
2022-09-23T06:56:23.770Z,11.40
2022-09-23T06:58:54.714Z,7.88
2022-09-23T07:01:24.329Z,5.45
2022-09-23T07:03:54.238Z,5.22
2022-09-23T07:06:22.457Z,9.23
2022-09-23T07:08:51.338Z,7.25
2022-09-23T07:11:25.536Z,8.85
2022-09-23T07:13:54.123Z,6.65
2022-09-23T07:16:22.461Z,6.30
2022-09-23T07:18:51.003Z,5.43
2022-09-23T07:21:20.128Z,6.93
2022-09-23T07:23:50.197Z,5.68
2022-09-23T07:26:19.445Z,5.07
2022-09-23T07:28:49.164Z,7.03
2022-09-23T07:31:36.616Z,4.13
2022-09-23T07:34:08.074Z,6.78
2022-09-23T07:36:37.492Z,4.95
2022-09-23T07:39:06.405Z,4.95
2022-09-23T07:41:35.874Z,6.22
2022-09-23T07:44:06.534Z,6.30
2022-09-23T07:46:37.202Z,5.15
2022-09-23T07:49:06.952Z,3.78
2022-09-23T07:51:37.213Z,6.22
2022-09-23T07:54:08.689Z,6.35
2022-09-23T07:56:38.420Z,5.80
2022-09-23T07:59:09.391Z,8.07
2022-09-23T08:02:01.440Z,5.65
2022-09-23T08:05:52.454Z,8.48
2022-09-23T08:08:53.177Z,7.50
2022-09-23T08:12:49.387Z,3.97
2022-09-23T08:16:40.590Z,16.33
2022-09-23T08:20:17.792Z,7.03
2022-09-23T08:23:41.060Z,4.18
2022-09-23T08:30:00.808Z,7.43
2022-09-23T08:32:49.565Z,5.50
2022-09-23T08:34:58.636Z,5.25
2022-09-23T08:41:02.144Z,9.32
2022-09-23T08:44:11.070Z,5.32
2022-09-23T08:46:50.778Z,4.85
2022-09-23T08:49:33.448Z,14.55
2022-09-23T08:52:09.255Z,5.10
2022-09-23T08:54:45.167Z,8.75
2022-09-23T08:57:31.380Z,4.35
2022-09-23T09:00:01.756Z,7.07
2022-09-23T09:02:30.877Z,7.13
2022-09-23T09:05:03.644Z,7.22
2022-09-23T09:07:37.108Z,3.88
2022-09-23T09:10:14.335Z,7.72
2022-09-23T09:12:45.266Z,4.43
2022-09-23T09:15:16.829Z,4.63
2022-09-23T09:17:56.638Z,5.45
2022-09-23T09:20:29.699Z,11.20
2022-09-23T09:23:01.107Z,4.82
2022-09-23T09:25:44.687Z,6.75
2022-09-23T09:28:18.997Z,4.30
2022-09-23T09:30:52.166Z,5.05
2022-09-23T09:33:25.715Z,8.75
2022-09-23T09:36:08.984Z,5.57
2022-09-23T09:38:38.867Z,7.30
2022-09-23T09:41:16.078Z,7.38
2022-09-23T09:43:49.181Z,5.82
2022-09-23T09:46:34.165Z,7.28
2022-09-23T09:49:11.028Z,9.93
2022-09-23T09:52:11.213Z,8.52
2022-09-23T09:54:41.417Z,5.68
2022-09-23T09:57:33.685Z,7.07
2022-09-23T10:00:35.593Z,10.82
2022-09-23T10:03:09.837Z,9.30
2022-09-23T10:05:49.819Z,7.05
2022-09-23T10:08:26.032Z,6.07
2022-09-23T10:11:02.658Z,4.68
2022-09-23T10:13:31.360Z,7.20
2022-09-23T10:16:02.796Z,4.20
2022-09-23T10:18:35.896Z,16.55
2022-09-23T10:21:09.540Z,11.25
2022-09-23T10:23:43.465Z,6.22
2022-09-23T10:26:17.397Z,11.57
2022-09-23T10:28:51.338Z,11.25
2022-09-23T10:31:25.881Z,3.75
2022-09-23T10:33:57.325Z,6.95
2022-09-23T10:36:26.022Z,8.38
2022-09-23T10:39:18.683Z,5.88
2022-09-23T10:42:15.096Z,5.80
2022-09-23T10:45:17.597Z,6.32
2022-09-23T10:47:56.760Z,6.55
2022-09-23T10:50:38.637Z,7.07
2022-09-23T10:53:16.222Z,14.80
2022-09-23T10:55:58.257Z,7.10
2022-09-23T10:58:58.931Z,5.57
2022-09-23T11:01:38.813Z,5.00
2022-09-23T11:04:29.584Z,7.90
2022-09-23T11:07:10.489Z,6.40
2022-09-23T11:09:49.401Z,4.28
2022-09-23T11:12:27.347Z,4.43
2022-09-23T11:15:20.873Z,4.68
2022-09-23T11:18:11.764Z,5.45
2022-09-23T11:26:47.084Z,7.10
2022-09-23T11:40:40.965Z,8.02
2022-09-23T11:51:47.201Z,7.10
2022-09-23T11:55:19.920Z,7.65
2022-09-23T11:59:18.979Z,11.80
2022-09-23T12:03:45.057Z,6.72
2022-09-23T12:11:47.725Z,5.40
2022-09-23T12:15:06.001Z,7.40
2022-09-23T12:26:50.558Z,7.32
2022-09-23T12:29:19.060Z,9.23
2022-09-23T12:31:48.306Z,10.93
2022-09-23T12:34:31.112Z,8.48
2022-09-23T12:37:04.165Z,7.00
2022-09-23T12:39:34.531Z,7.00
2022-09-23T12:42:06.348Z,6.00
2022-09-23T12:44:40.685Z,6.65
2022-09-23T12:47:39.959Z,6.18
2022-09-23T12:50:42.777Z,12.68
2022-09-23T12:53:47.676Z,12.02
2022-09-23T12:56:17.291Z,7.95
2022-09-23T12:59:00.885Z,6.85
2022-09-23T13:01:29.617Z,5.43
2022-09-23T13:04:17.032Z,7.80
2022-09-23T13:06:58.722Z,7.75
2022-09-23T13:09:30.179Z,12.13
2022-09-23T13:12:01.470Z,13.50
2022-09-23T13:14:33.765Z,10.18
2022-09-23T13:17:02.086Z,8.60
2022-09-23T13:19:58.476Z,12.40
2022-09-23T13:22:43.623Z,6.97
2022-09-23T13:25:20.772Z,8.90
2022-09-23T13:27:52.991Z,9.15
2022-09-23T13:30:26.636Z,11.75
2022-09-23T13:33:13.840Z,9.15
2022-09-23T13:35:45.631Z,12.85
2022-09-23T13:38:26.100Z,10.63
2022-09-23T13:40:56.061Z,7.13
2022-09-23T13:43:28.211Z,8.70
2022-09-23T13:45:57.841Z,7.28
2022-09-23T13:48:27.237Z,8.38
2022-09-23T13:50:56.359Z,10.20
2022-09-23T13:53:28.124Z,14.70
2022-09-23T13:56:05.951Z,10.95
2022-09-23T13:58:35.965Z,10.43
2022-09-23T14:01:10.108Z,9.48
2022-09-23T14:03:40.484Z,9.68
2022-09-23T14:06:12.990Z,10.73
2022-09-23T14:08:45.479Z,11.93
2022-09-23T14:11:19.523Z,12.23
2022-09-23T14:13:51.044Z,11.18
2022-09-23T14:16:21.329Z,12.45
2022-09-23T14:18:52.624Z,11.93
2022-09-23T14:22:55.330Z,15.65
2022-09-23T14:26:19.503Z,13.13
2022-09-23T14:33:43.758Z,12.45
2022-09-23T14:37:11.696Z,14.32
2022-09-23T14:40:42.496Z,18.05
2022-09-23T14:44:20.063Z,23.30
2022-09-23T14:55:37.112Z,17.92
2022-09-23T14:59:28.670Z,18.23
2022-09-23T15:10:15.471Z,18.23
2022-09-23T15:17:40.975Z,15.00
2022-09-23T15:25:08.397Z,16.25
2022-09-23T15:27:40.870Z,15.68
2022-09-23T15:30:17.149Z,15.68
2022-09-23T15:36:26.577Z,19.98
2022-09-23T15:42:39.792Z,19.60
2022-09-23T15:45:12.159Z,13.85
2022-09-23T15:47:42.756Z,14.77
2022-09-23T15:50:13.830Z,17.20
2022-09-23T15:52:45.017Z,14.23
2022-09-23T15:55:18.225Z,15.00
2022-09-23T15:57:46.503Z,11.48
2022-09-23T16:00:16.047Z,10.43
2022-09-23T16:02:47.256Z,11.80
2022-09-23T16:05:26.609Z,13.15
2022-09-23T16:07:54.881Z,13.57
2022-09-23T16:10:23.965Z,13.15
2022-09-23T16:12:54.583Z,11.52
2022-09-23T16:15:26.203Z,10.82
2022-09-23T16:17:55.847Z,13.70
2022-09-23T16:20:25.878Z,13.23
2022-09-23T16:22:57.277Z,14.93
2022-09-23T16:25:28.335Z,14.25
2022-09-23T16:28:45.871Z,15.32
2022-09-23T16:31:52.757Z,16.65
2022-09-23T16:40:14.579Z,13.68
2022-09-23T16:46:39.207Z,21.30
2022-09-23T16:49:47.822Z,18.77
2022-09-23T16:53:41.022Z,16.40
2022-09-23T16:57:40.127Z,20.20
2022-09-23T17:00:52.670Z,21.02
2022-09-23T17:07:33.413Z,22.33
2022-09-23T17:18:19.656Z,20.67
2022-09-23T17:21:39.691Z,25.67
2022-09-23T17:25:13.044Z,24.13
2022-09-23T17:32:31.534Z,30.02
2022-09-23T17:39:35.308Z,25.35
2022-09-23T17:43:34.277Z,18.60
2022-09-23T17:46:59.456Z,16.90
2022-09-23T17:54:16.339Z,17.05
2022-09-23T17:57:20.870Z,25.98
2022-09-23T18:04:42.334Z,9.55
2022-09-23T18:08:06.203Z,13.82
2022-09-23T18:11:20.762Z,10.27
2022-09-23T18:11:22.887Z,20.55
2022-09-23T18:13:50.322Z,10.00
2022-09-23T18:16:20.578Z,9.93
2022-09-23T18:18:52.929Z,10.63
2022-09-23T18:22:15.323Z,12.45
2022-09-23T18:25:38.809Z,10.95
2022-09-23T18:28:40.411Z,12.07
2022-09-23T18:32:18.274Z,11.60
2022-09-23T18:35:27.542Z,11.80
2022-09-23T18:39:32.307Z,10.90
2022-09-23T18:43:11.044Z,11.45
2022-09-23T18:46:44.545Z,13.02
2022-09-23T18:50:28.755Z,12.00
2022-09-23T18:52:46.029Z,12.05
2022-09-23T18:55:14.625Z,11.10
2022-09-23T18:57:43.083Z,11.13
2022-09-23T19:00:12.364Z,13.07
2022-09-23T19:02:43.071Z,10.90
2022-09-23T19:05:11.434Z,12.68
2022-09-23T19:07:40.529Z,19.10
2022-09-23T19:10:10.041Z,16.60
2022-09-23T19:12:38.374Z,13.55
2022-09-23T19:15:07.380Z,14.75
2022-09-23T19:17:35.598Z,14.23
2022-09-23T19:20:05.580Z,12.85
2022-09-23T19:22:34.583Z,13.25
2022-09-23T19:25:02.876Z,14.13
2022-09-23T19:27:31.191Z,13.85
2022-09-23T19:29:59.879Z,14.55
2022-09-23T19:32:28.152Z,12.45
2022-09-23T19:34:59.726Z,15.68
2022-09-23T19:37:29.364Z,14.88
2022-09-23T19:39:57.959Z,14.55
2022-09-23T19:42:28.227Z,13.27
2022-09-23T19:44:56.433Z,15.75
2022-09-23T19:47:25.056Z,15.00
2022-09-23T19:49:53.827Z,14.93
2022-09-23T19:52:22.078Z,14.95
2022-09-23T19:54:51.778Z,14.05
2022-09-23T19:57:20.190Z,13.20
2022-09-23T20:00:34.653Z,14.90
2022-09-23T20:04:15.166Z,14.65
2022-09-23T20:08:11.475Z,16.02
2022-09-23T20:12:17.724Z,15.43
2022-09-23T20:16:07.739Z,14.75
2022-09-23T20:21:34.016Z,16.48
2022-09-23T20:27:31.388Z,14.73
2022-09-23T20:30:44.015Z,15.68
2022-09-23T20:34:00.020Z,13.70
2022-09-23T20:37:31.621Z,13.82
2022-09-23T20:41:21.977Z,13.70
2022-09-23T20:45:45.248Z,17.23
2022-09-23T20:49:04.385Z,14.65
2022-09-23T20:51:39.335Z,15.45
2022-09-23T20:54:32.876Z,15.15
2022-09-23T20:58:45.145Z,15.77
2022-09-23T21:06:50.597Z,14.73
2022-09-23T21:11:35.530Z,17.42
2022-09-23T21:18:54.075Z,18.35
2022-09-23T21:25:12.123Z,20.88
2022-09-23T21:29:24.812Z,13.35
2022-09-23T21:33:10.196Z,22.73
2022-09-23T21:43:44.651Z,14.60
2022-09-23T21:59:40.186Z,13.52
2022-09-23T22:03:30.056Z,13.45
2022-09-23T22:07:41.805Z,12.75
2022-09-23T22:11:14.913Z,13.23
2022-09-23T22:17:51.906Z,14.25
2022-09-23T22:25:51.528Z,14.80
2022-09-23T22:29:49.978Z,11.63
2022-09-23T22:33:17.131Z,13.30
2022-09-23T22:36:29.055Z,10.70
2022-09-23T22:40:36.295Z,7.80
2022-09-23T22:45:06.636Z,8.32
2022-09-23T22:48:00.800Z,11.43
2022-09-23T22:51:14.676Z,10.43
2022-09-23T22:54:45.662Z,10.98
2022-09-23T23:06:10.522Z,9.43
2022-09-23T23:09:57.691Z,9.20
2022-09-23T23:13:42.866Z,12.07
2022-09-23T23:16:48.536Z,9.90
2022-09-23T23:27:53.457Z,14.77
2022-09-23T23:32:43.757Z,12.48
2022-09-23T23:36:26.305Z,11.25
2022-09-23T23:40:06.881Z,12.40
2022-09-23T23:44:03.951Z,13.18
2022-09-23T23:47:06.532Z,17.23
2022-09-23T23:51:15.622Z,17.50
2022-09-23T23:58:07.951Z,16.02
2022-09-23T23:59:33.893Z,16.23
